»·PEaware :: SWA6054 KSAN-KDEN

SWA6054 :: KSAN-KDEN

FLIGHT INFORMATION

Flight Status: Arrived
Operator:
Southwest Airlines
More flights by this operator :: More flights under this callsign
Pilot: Merv A. (1555)
Aircraft: BOEING 737-700
(B737)
More flights by this aircraft type
Origin: KSAN San Diego Intl-Lindbergh
United States
Destination: KDEN Denver Intl
United States
More flights between these airports :: More routes between these airports
Route: ZZOOO2 MTBAL AVRRY EED J236 TBC OURAY LDORA2
File this flight plan on PilotEdge
Remarks: PBN / A1B1C1D1S1S2 DOF / 181005 REG / N714SB EET / KZDV0051 OPR / SWA PER / C RMK / TCAS SIMBRIEF
Altitude:
(Current/Filed)
37,000ft
Speed:
(Current/Filed)
455kts
Departed: 05-Oct-18 04:52 PM
Arrived: 05-Oct-18 06:40 PM
Distance/Time
Traveled:
740nm/1:47
Distance/Time
To Go:
Arrived

Flight Plot

Page will automatically refresh every two minutes.

Flight plan parsing failed; only flown route is shown


Map Options




Map Legend


Flown Route
Filed Route
Departure Airport
Arrival Airport
Navaid (VOR, NDB)
Fix

Horizontal Profiles

Position Reports

Time Latitude Longitude Heading Altitude Ground
Speed
05-Oct-18 16:23 32.732516 -117.195481 312 22ft 0kts
05-Oct-18 16:24 32.732516 -117.195481 312 22ft 0kts
05-Oct-18 16:25 32.732516 -117.195481 312 22ft 0kts
05-Oct-18 16:26 32.732516 -117.195481 312 22ft 0kts
05-Oct-18 16:27 32.732516 -117.195481 312 22ft 0kts
05-Oct-18 16:28 32.732516 -117.195481 312 22ft 0kts
05-Oct-18 16:29 32.732516 -117.195481 312 22ft 0kts
05-Oct-18 16:30 32.732516 -117.195481 312 22ft 0kts
05-Oct-18 16:31 32.732516 -117.195481 312 22ft 0kts
05-Oct-18 16:32 32.732516 -117.195481 312 22ft 0kts
05-Oct-18 16:33 32.732516 -117.195481 312 22ft 0kts
05-Oct-18 16:34 32.732516 -117.195481 312 22ft 0kts
05-Oct-18 16:35 32.732516 -117.195481 312 22ft 0kts
05-Oct-18 16:36 32.732516 -117.195481 312 22ft 0kts
05-Oct-18 16:37 32.732516 -117.195481 312 22ft 0kts
05-Oct-18 16:38 32.732516 -117.195481 312 22ft 0kts
05-Oct-18 16:39 32.732516 -117.195481 312 22ft 0kts
05-Oct-18 16:40 32.732516 -117.195481 312 22ft 0kts
05-Oct-18 16:41 32.732516 -117.195481 312 22ft 0kts
05-Oct-18 16:42 32.732516 -117.195481 312 22ft 0kts
05-Oct-18 16:43 32.732321 -117.195198 305 22ft 2kts
05-Oct-18 16:44 32.731950 -117.195032 28 22ft 0kts
05-Oct-18 16:45 32.731950 -117.195032 28 22ft 0kts
05-Oct-18 16:46 32.731950 -117.195032 28 22ft 0kts
05-Oct-18 16:47 32.732808 -117.194516 27 22ft 5kts
05-Oct-18 16:48 32.733080 -117.191986 106 22ft 16kts
05-Oct-18 16:49 32.731591 -117.185826 105 22ft 21kts
05-Oct-18 16:50 32.730396 -117.180896 106 22ft 12kts
05-Oct-18 16:51 32.729588 -117.177593 106 22ft 2kts
05-Oct-18 16:52 32.729645 -117.176368 74 22ft 7kts
05-Oct-18 16:53 32.730264 -117.176077 285 22ft 1kts
05-Oct-18 16:54 32.737523 -117.208363 284 1128ft 150kts
05-Oct-18 16:55 32.750086 -117.258809 288 3503ft 190kts
05-Oct-18 16:56 32.725008 -117.318310 187 6002ft 263kts
05-Oct-18 16:57 32.660020 -117.271045 141 9081ft 299kts
05-Oct-18 16:58 32.623745 -117.181582 91 11469ft 342kts
05-Oct-18 16:59 32.615303 -117.065041 93 14360ft 365kts
05-Oct-18 17:00 32.604500 -116.941476 89 17171ft 384kts
05-Oct-18 17:01 32.622382 -116.816760 63 19868ft 389kts
05-Oct-18 17:02 32.702199 -116.738900 20 22344ft 382kts
05-Oct-18 17:03 32.802029 -116.689305 18 23409ft 393kts
05-Oct-18 17:04 32.903524 -116.639555 18 25725ft 401kts
05-Oct-18 17:05 33.008284 -116.588018 17 27663ft 413kts
05-Oct-18 17:06 33.115094 -116.532309 18 29374ft 424kts
05-Oct-18 17:07 33.224435 -116.475108 18 30760ft 437kts
05-Oct-18 17:08 33.337957 -116.415464 18 31868ft 451kts
05-Oct-18 17:09 33.437737 -116.319863 48 32984ft 478kts
05-Oct-18 17:10 33.515865 -116.189282 50 34288ft 481kts
05-Oct-18 17:11 33.592347 -116.058251 54 35410ft 485kts
05-Oct-18 17:12 33.646355 -115.907910 66 36416ft 493kts
05-Oct-18 17:13 33.694991 -115.753149 66 36884ft 494kts
05-Oct-18 17:14 33.744831 -115.600818 58 36902ft 489kts
05-Oct-18 17:15 33.833481 -115.481702 36 36909ft 476kts
05-Oct-18 17:16 33.933238 -115.376527 36 36908ft 477kts
05-Oct-18 17:17 34.032293 -115.270740 36 36906ft 478kts
05-Oct-18 17:18 34.131780 -115.164267 37 36902ft 477kts
05-Oct-18 17:19 34.230802 -115.057511 37 36902ft 478kts
05-Oct-18 17:20 34.330229 -114.949883 37 36897ft 479kts
05-Oct-18 17:21 34.429280 -114.842444 37 36891ft 479kts
05-Oct-18 17:22 34.528771 -114.734060 37 36887ft 480kts
05-Oct-18 17:23 34.627837 -114.625955 37 36874ft 480kts
05-Oct-18 17:24 34.726822 -114.517227 38 36878ft 480kts
05-Oct-18 17:25 34.806719 -114.385225 58 36878ft 491kts
05-Oct-18 17:26 34.870352 -114.238200 58 36892ft 492kts
05-Oct-18 17:27 34.934302 -114.091482 58 36919ft 491kts
05-Oct-18 17:28 34.998788 -113.944745 58 36957ft 492kts
05-Oct-18 17:29 35.063490 -113.796297 59 37001ft 492kts
05-Oct-18 17:30 35.127552 -113.648532 59 37011ft 493kts
05-Oct-18 17:31 35.191351 -113.500856 59 37014ft 492kts
05-Oct-18 17:32 35.255166 -113.352287 59 37019ft 493kts
05-Oct-18 17:33 35.318821 -113.203751 59 37053ft 494kts
05-Oct-18 17:34 35.382350 -113.054676 59 37078ft 493kts
05-Oct-18 17:35 35.445830 -112.904974 60 37106ft 493kts
05-Oct-18 17:36 35.508760 -112.756089 60 37123ft 494kts
05-Oct-18 17:37 35.572182 -112.605304 60 37131ft 494kts
05-Oct-18 17:38 35.634875 -112.455513 60 37137ft 495kts
05-Oct-18 17:39 35.697362 -112.305642 60 37141ft 495kts
05-Oct-18 17:40 35.760193 -112.154118 60 37147ft 495kts
05-Oct-18 17:41 35.822636 -112.002880 60 37146ft 495kts
05-Oct-18 17:42 35.884783 -111.851585 61 37143ft 495kts
05-Oct-18 17:43 35.946703 -111.700267 61 37139ft 494kts
05-Oct-18 17:44 36.007849 -111.550733 61 37116ft 494kts
05-Oct-18 17:45 36.069322 -111.398722 61 37099ft 495kts
05-Oct-18 17:46 36.131300 -111.246636 58 37084ft 495kts
05-Oct-18 17:47 36.202141 -111.100638 56 37073ft 495kts
05-Oct-18 17:48 36.272847 -110.954209 57 37066ft 496kts
05-Oct-18 17:49 36.343588 -110.807389 57 37063ft 496kts
05-Oct-18 17:50 36.414147 -110.660047 57 37059ft 497kts
05-Oct-18 17:51 36.484469 -110.512117 57 37065ft 498kts
05-Oct-18 17:52 36.554657 -110.363902 57 37076ft 498kts
05-Oct-18 17:53 36.624877 -110.214825 58 37087ft 498kts
05-Oct-18 17:54 36.694768 -110.065747 58 37098ft 498kts
05-Oct-18 17:55 36.764534 -109.916299 58 37110ft 501kts
05-Oct-18 17:56 36.834582 -109.765551 58 37122ft 501kts
05-Oct-18 17:57 36.904232 -109.614970 58 37132ft 501kts
05-Oct-18 17:58 36.973795 -109.463724 58 37120ft 502kts
05-Oct-18 17:59 37.043477 -109.311784 59 37119ft 502kts
05-Oct-18 18:00 37.112592 -109.160304 59 37116ft 503kts
05-Oct-18 18:01 37.182137 -109.007285 59 37113ft 504kts
05-Oct-18 18:02 37.251107 -108.854711 59 37105ft 506kts
05-Oct-18 18:03 37.320485 -108.700505 59 37101ft 507kts
05-Oct-18 18:04 37.389625 -108.546100 60 37102ft 508kts
05-Oct-18 18:05 37.458676 -108.391142 60 37116ft 508kts
05-Oct-18 18:06 37.527923 -108.235025 60 37144ft 509kts
05-Oct-18 18:07 37.596413 -108.079864 60 37173ft 509kts
05-Oct-18 18:08 37.664709 -107.924386 60 37203ft 510kts
05-Oct-18 18:09 37.733220 -107.767626 60 37230ft 510kts
05-Oct-18 18:10 37.801713 -107.610197 61 37238ft 510kts
05-Oct-18 18:11 37.869707 -107.453112 61 37227ft 512kts
05-Oct-18 18:12 37.937827 -107.294980 61 37214ft 512kts
05-Oct-18 18:13 38.006190 -107.135490 61 37257ft 514kts
05-Oct-18 18:14 38.074107 -106.976287 61 37240ft 514kts
05-Oct-18 18:15 38.142356 -106.816107 62 37262ft 516kts
05-Oct-18 18:16 38.210417 -106.654368 61 37268ft 518kts
05-Oct-18 18:17 38.299908 -106.511505 40 37295ft 517kts
05-Oct-18 18:18 38.404233 -106.385033 42 37373ft 522kts
05-Oct-18 18:19 38.508534 -106.255575 42 37107ft 524kts
05-Oct-18 18:20 38.612368 -106.125350 43 34991ft 528kts
05-Oct-18 18:21 38.718457 -105.992290 44 32077ft 537kts
05-Oct-18 18:22 38.824736 -105.857984 44 29077ft 535kts
05-Oct-18 18:23 38.928493 -105.726334 44 26499ft 502kts
05-Oct-18 18:24 39.023619 -105.605137 44 24461ft 469kts
05-Oct-18 18:25 39.114868 -105.488036 44 22209ft 455kts
05-Oct-18 18:26 39.201704 -105.376781 44 20026ft 421kts
05-Oct-18 18:27 39.265625 -105.265502 72 18809ft 371kts
05-Oct-18 18:28 39.289542 -105.137156 79 17286ft 362kts
05-Oct-18 18:29 39.312289 -105.013728 78 15607ft 334kts
05-Oct-18 18:30 39.332956 -104.902666 78 14306ft 301kts
05-Oct-18 18:31 39.356011 -104.804373 73 13205ft 275kts
05-Oct-18 18:32 39.378216 -104.716327 74 12683ft 243kts
05-Oct-18 18:33 39.412927 -104.647835 12 12412ft 245kts
05-Oct-18 18:34 39.476211 -104.664218 355 12086ft 230kts
05-Oct-18 18:35 39.539892 -104.663889 0 11100ft 223kts
05-Oct-18 18:36 39.598272 -104.663196 1 9962ft 201kts
05-Oct-18 18:37 39.652847 -104.662563 2 8906ft 188kts
05-Oct-18 18:38 39.704957 -104.661962 2 7887ft 182kts
05-Oct-18 18:39 39.749847 -104.661443 3 7000ft 150kts
05-Oct-18 18:40 39.791388 -104.660868 1 6193ft 145kts
05-Oct-18 18:41 39.831528 -104.660456 2 5457ft 139kts
05-Oct-18 18:42 39.847842 -104.660751 339 5439ft 17kts
05-Oct-18 18:43 39.850715 -104.662410 0 5439ft 8kts
05-Oct-18 18:44 39.853789 -104.662375 0 5439ft 13kts
05-Oct-18 18:45 39.856882 -104.662364 0 5439ft 11kts
05-Oct-18 18:46 39.860082 -104.662324 0 5439ft 12kts
05-Oct-18 18:47 39.864360 -104.662270 0 5439ft 8kts
05-Oct-18 18:48 39.865051 -104.664801 269 5439ft 12kts
05-Oct-18 18:49 39.864151 -104.667438 271 5439ft 9kts
05-Oct-18 18:50 39.864197 -104.672208 270 5439ft 10kts
05-Oct-18 18:51 39.864208 -104.675281 270 5439ft 10kts
05-Oct-18 18:52 39.864091 -104.678094 203 5439ft 4kts
05-Oct-18 18:53 39.863573 -104.678130 178 5439ft 0kts
05-Oct-18 18:54 39.863573 -104.678130 178 5439ft 0kts
05-Oct-18 18:55 39.863573 -104.678130 178 5439ft 0kts
05-Oct-18 18:56 39.863573 -104.678130 178 5439ft 0kts

Navigation Log

Ident Type
Flight plan parsing failed, navigation log unavailable